レゾリュート の空港の天気 - METARとTAF

レゾリュート空港 ( CYRB / YRB ) - カナダ ヌナブト準州レゾリュート
飛行場実況気象(Metar)
観測時間06/24 04:00 CDT (06/24 09:00 UTC)
風向・風速北北西 2m/s
視程10km以上
天気現象
少しの雲 雲底高度 460m
気温0℃
湿度93%
気圧1011.2hPa
METARCYRB 240900Z 34003KT 240V350 20SM FEW015 00/M01 A2984 RMK SC1 SC TR SLP112
過去の天気等 Google飛行場航空写真 Wunderground天気予報

過去48時間のMETAR

飛行場予報(TAF)
発表時間: 6/24 04:07 CDT (6/24 09:07 UTC)
予報対象時間: 24日4時 CDT ~ 25日1時 CDT
風向・風速北 3m/s
視程10km以上
全天の4割程度の雲 雲底高度 460m
24日4時 CDT ~ 24日7時 CDT に一時的に
少しの雲 雲底高度 150m
全天の8割程度の雲 雲底高度 460m
24日7時 CDT から
風向・風速北北西 5m/s
視程10km以上
全天の4割程度の雲 雲底高度 180m
全天の8割程度の雲 雲底高度 460m
24日7時 CDT ~ 25日1時 CDT に一時的に
視程10km以上
天気現象弱い雪
全天の8割程度の雲 雲底高度 180m
全天を覆う雲 雲底高度 460m
TAF AMD CYRB 240907Z 2409/2506 35005KT P6SM SCT015
TEMPO 2409/2412 FEW005 BKN015
FM241200 34010KT P6SM SCT006 BKN015
TEMPO 2412/2506 P6SM -SN BKN006 OVC015 RMK NXT FCST BY 241200Z